sensor_id;sensor_type;location;lat;lon;timestamp;P1;durP1;ratioP1;P2;durP2;ratioP2
75320;SDS011;68337;52.196;5.660;2023-03-14T00:01:53;18.92;;;4.43;;
75320;SDS011;68337;52.196;5.660;2023-03-14T00:04:19;9.38;;;4.40;;
75320;SDS011;68337;52.196;5.660;2023-03-14T00:06:45;13.55;;;4.50;;
75320;SDS011;68337;52.196;5.660;2023-03-14T00:09:12;14.43;;;4.55;;
75320;SDS011;68337;52.196;5.660;2023-03-14T00:11:38;13.32;;;3.78;;
75320;SDS011;68337;52.196;5.660;2023-03-14T00:14:04;13.38;;;4.20;;
75320;SDS011;68337;52.196;5.660;2023-03-14T00:16:29;14.32;;;4.75;;
75320;SDS011;68337;52.196;5.660;2023-03-14T00:18:55;12.52;;;4.85;;
75320;SDS011;68337;52.196;5.660;2023-03-14T00:21:21;8.52;;;4.00;;
75320;SDS011;68337;52.196;5.660;2023-03-14T00:23:46;15.00;;;5.00;;
75320;SDS011;68337;52.196;5.660;2023-03-14T00:26:15;25.80;;;6.22;;
75320;SDS011;68337;52.196;5.660;2023-03-14T00:28:42;15.63;;;4.20;;
75320;SDS011;68337;52.196;5.660;2023-03-14T00:31:09;15.77;;;4.10;;
75320;SDS011;68337;52.196;5.660;2023-03-14T00:33:37;13.40;;;4.28;;
75320;SDS011;68337;52.196;5.660;2023-03-14T00:36:04;17.02;;;4.65;;
75320;SDS011;68337;52.196;5.660;2023-03-14T00:38:33;12.60;;;3.95;;
75320;SDS011;68337;52.196;5.660;2023-03-14T00:41:01;14.75;;;4.47;;
75320;SDS011;68337;52.196;5.660;2023-03-14T00:43:29;24.23;;;4.55;;
75320;SDS011;68337;52.196;5.660;2023-03-14T00:45:54;16.00;;;3.70;;
75320;SDS011;68337;52.196;5.660;2023-03-14T00:48:20;17.58;;;3.65;;
75320;SDS011;68337;52.196;5.660;2023-03-14T00:50:46;15.07;;;4.75;;
75320;SDS011;68337;52.196;5.660;2023-03-14T00:53:12;12.60;;;3.20;;
75320;SDS011;68337;52.196;5.660;2023-03-14T00:55:38;12.75;;;3.58;;
75320;SDS011;68337;52.196;5.660;2023-03-14T00:58:05;12.13;;;3.38;;
75320;SDS011;68337;52.196;5.660;2023-03-14T01:00:31;11.35;;;3.25;;
75320;SDS011;68337;52.196;5.660;2023-03-14T01:02:57;11.52;;;3.28;;
75320;SDS011;68337;52.196;5.660;2023-03-14T01:05:23;12.50;;;3.00;;
75320;SDS011;68337;52.196;5.660;2023-03-14T01:07:49;12.95;;;2.97;;
75320;SDS011;68337;52.196;5.660;2023-03-14T01:10:15;14.52;;;3.25;;
75320;SDS011;68337;52.196;5.660;2023-03-14T01:12:41;15.07;;;3.55;;
75320;SDS011;68337;52.196;5.660;2023-03-14T01:15:07;12.32;;;3.40;;
75320;SDS011;68337;52.196;5.660;2023-03-14T01:17:33;13.95;;;3.15;;
75320;SDS011;68337;52.196;5.660;2023-03-14T01:19:59;17.45;;;3.08;;
75320;SDS011;68337;52.196;5.660;2023-03-14T01:22:25;7.90;;;2.58;;
75320;SDS011;68337;52.196;5.660;2023-03-14T01:24:51;10.63;;;2.38;;
75320;SDS011;68337;52.196;5.660;2023-03-14T01:27:17;8.65;;;3.38;;
75320;SDS011;68337;52.196;5.660;2023-03-14T01:29:43;9.82;;;3.30;;
75320;SDS011;68337;52.196;5.660;2023-03-14T01:32:08;10.73;;;2.72;;
75320;SDS011;68337;52.196;5.660;2023-03-14T01:34:34;9.18;;;2.40;;
75320;SDS011;68337;52.196;5.660;2023-03-14T01:37:00;8.27;;;2.50;;
75320;SDS011;68337;52.196;5.660;2023-03-14T01:39:25;9.20;;;2.80;;
75320;SDS011;68337;52.196;5.660;2023-03-14T01:41:51;9.38;;;2.90;;
75320;SDS011;68337;52.196;5.660;2023-03-14T01:44:17;9.55;;;3.28;;
75320;SDS011;68337;52.196;5.660;2023-03-14T01:46:43;9.65;;;2.60;;
75320;SDS011;68337;52.196;5.660;2023-03-14T01:51:56;6.43;;;2.40;;
75320;SDS011;68337;52.196;5.660;2023-03-14T01:59:37;9.65;;;2.50;;
75320;SDS011;68337;52.196;5.660;2023-03-14T02:02:04;11.52;;;2.47;;
75320;SDS011;68337;52.196;5.660;2023-03-14T02:04:35;14.35;;;3.00;;
75320;SDS011;68337;52.196;5.660;2023-03-14T02:09:43;9.13;;;2.78;;
75320;SDS011;68337;52.196;5.660;2023-03-14T02:12:09;11.27;;;3.00;;
75320;SDS011;68337;52.196;5.660;2023-03-14T02:14:38;9.07;;;2.35;;
75320;SDS011;68337;52.196;5.660;2023-03-14T02:17:05;9.68;;;2.55;;
75320;SDS011;68337;52.196;5.660;2023-03-14T02:22:19;9.63;;;2.42;;
75320;SDS011;68337;52.196;5.660;2023-03-14T02:27:19;9.88;;;2.20;;
75320;SDS011;68337;52.196;5.660;2023-03-14T02:32:19;8.68;;;2.65;;
75320;SDS011;68337;52.196;5.660;2023-03-14T02:34:49;14.73;;;3.00;;
75320;SDS011;68337;52.196;5.660;2023-03-14T02:37:18;8.55;;;2.67;;
75320;SDS011;68337;52.196;5.660;2023-03-14T02:39:46;7.32;;;2.30;;
75320;SDS011;68337;52.196;5.660;2023-03-14T02:42:14;9.18;;;2.53;;
75320;SDS011;68337;52.196;5.660;2023-03-14T02:44:54;13.70;;;2.80;;
75320;SDS011;68337;52.196;5.660;2023-03-14T02:47:29;12.23;;;2.72;;
75320;SDS011;68337;52.196;5.660;2023-03-14T02:49:59;12.40;;;3.88;;
75320;SDS011;68337;52.196;5.660;2023-03-14T02:52:28;8.90;;;2.80;;
75320;SDS011;68337;52.196;5.660;2023-03-14T02:54:54;12.38;;;3.70;;
75320;SDS011;68337;52.196;5.660;2023-03-14T02:57:20;11.20;;;3.55;;
75320;SDS011;68337;52.196;5.660;2023-03-14T02:59:45;9.13;;;3.47;;
75320;SDS011;68337;52.196;5.660;2023-03-14T03:02:11;16.38;;;4.68;;
75320;SDS011;68337;52.196;5.660;2023-03-14T03:04:37;9.00;;;3.85;;
75320;SDS011;68337;52.196;5.660;2023-03-14T03:07:03;9.88;;;3.60;;
75320;SDS011;68337;52.196;5.660;2023-03-14T03:09:28;9.55;;;4.10;;
75320;SDS011;68337;52.196;5.660;2023-03-14T03:11:54;17.45;;;3.92;;
75320;SDS011;68337;52.196;5.660;2023-03-14T03:14:20;7.47;;;3.83;;
75320;SDS011;68337;52.196;5.660;2023-03-14T03:16:46;11.95;;;4.32;;
75320;SDS011;68337;52.196;5.660;2023-03-14T03:19:12;13.68;;;4.35;;
75320;SDS011;68337;52.196;5.660;2023-03-14T03:21:39;10.85;;;3.53;;
75320;SDS011;68337;52.196;5.660;2023-03-14T03:24:10;7.28;;;3.65;;
75320;SDS011;68337;52.196;5.660;2023-03-14T03:26:36;9.68;;;4.35;;
75320;SDS011;68337;52.196;5.660;2023-03-14T03:29:03;11.15;;;4.00;;
75320;SDS011;68337;52.196;5.660;2023-03-14T03:31:28;12.70;;;3.67;;
75320;SDS011;68337;52.196;5.660;2023-03-14T03:33:54;12.60;;;3.88;;
75320;SDS011;68337;52.196;5.660;2023-03-14T03:36:21;10.32;;;3.33;;
75320;SDS011;68337;52.196;5.660;2023-03-14T03:38:50;11.00;;;3.50;;
75320;SDS011;68337;52.196;5.660;2023-03-14T03:41:16;12.25;;;3.40;;
75320;SDS011;68337;52.196;5.660;2023-03-14T03:43:42;11.13;;;3.60;;
75320;SDS011;68337;52.196;5.660;2023-03-14T03:46:07;19.63;;;3.88;;
75320;SDS011;68337;52.196;5.660;2023-03-14T03:48:34;12.55;;;3.60;;
75320;SDS011;68337;52.196;5.660;2023-03-14T03:51:00;13.07;;;4.10;;
75320;SDS011;68337;52.196;5.660;2023-03-14T03:53:26;15.35;;;4.10;;
75320;SDS011;68337;52.196;5.660;2023-03-14T03:55:52;8.88;;;3.92;;
75320;SDS011;68337;52.196;5.660;2023-03-14T03:58:18;13.60;;;3.55;;
75320;SDS011;68337;52.196;5.660;2023-03-14T04:00:44;13.15;;;4.45;;
75320;SDS011;68337;52.196;5.660;2023-03-14T04:03:10;11.73;;;4.00;;
75320;SDS011;68337;52.196;5.660;2023-03-14T04:05:36;10.05;;;3.60;;
75320;SDS011;68337;52.196;5.660;2023-03-14T04:08:01;9.23;;;3.22;;
75320;SDS011;68337;52.196;5.660;2023-03-14T04:10:28;11.85;;;3.47;;
75320;SDS011;68337;52.196;5.660;2023-03-14T04:12:54;10.55;;;3.60;;
75320;SDS011;68337;52.196;5.660;2023-03-14T04:15:19;17.95;;;3.58;;
75320;SDS011;68337;52.196;5.660;2023-03-14T04:17:45;14.82;;;3.88;;
75320;SDS011;68337;52.196;5.660;2023-03-14T04:20:11;14.77;;;3.80;;
75320;SDS011;68337;52.196;5.660;2023-03-14T04:22:40;7.70;;;2.92;;
75320;SDS011;68337;52.196;5.660;2023-03-14T04:25:06;10.80;;;2.92;;
75320;SDS011;68337;52.196;5.660;2023-03-14T04:27:32;12.25;;;3.35;;
75320;SDS011;68337;52.196;5.660;2023-03-14T04:29:58;18.98;;;3.33;;
75320;SDS011;68337;52.196;5.660;2023-03-14T04:32:23;12.68;;;2.97;;
75320;SDS011;68337;52.196;5.660;2023-03-14T04:34:49;10.30;;;3.40;;
75320;SDS011;68337;52.196;5.660;2023-03-14T04:37:15;12.13;;;3.20;;
75320;SDS011;68337;52.196;5.660;2023-03-14T04:39:41;11.68;;;3.63;;
75320;SDS011;68337;52.196;5.660;2023-03-14T04:42:07;11.82;;;3.40;;
75320;SDS011;68337;52.196;5.660;2023-03-14T04:44:32;9.07;;;3.38;;
75320;SDS011;68337;52.196;5.660;2023-03-14T04:46:58;13.98;;;3.00;;
75320;SDS011;68337;52.196;5.660;2023-03-14T04:49:24;11.48;;;4.38;;
75320;SDS011;68337;52.196;5.660;2023-03-14T04:51:50;13.15;;;3.53;;
75320;SDS011;68337;52.196;5.660;2023-03-14T04:54:16;13.80;;;3.72;;
75320;SDS011;68337;52.196;5.660;2023-03-14T04:56:42;10.95;;;3.75;;
75320;SDS011;68337;52.196;5.660;2023-03-14T04:59:08;12.52;;;3.80;;
75320;SDS011;68337;52.196;5.660;2023-03-14T05:01:34;14.20;;;3.95;;
75320;SDS011;68337;52.196;5.660;2023-03-14T05:04:00;8.43;;;3.63;;
75320;SDS011;68337;52.196;5.660;2023-03-14T05:06:26;13.18;;;4.13;;
75320;SDS011;68337;52.196;5.660;2023-03-14T05:08:52;10.77;;;3.47;;
75320;SDS011;68337;52.196;5.660;2023-03-14T05:11:17;12.07;;;3.60;;
75320;SDS011;68337;52.196;5.660;2023-03-14T05:13:43;20.90;;;3.92;;
75320;SDS011;68337;52.196;5.660;2023-03-14T05:16:09;11.48;;;3.40;;
75320;SDS011;68337;52.196;5.660;2023-03-14T05:18:36;14.52;;;3.75;;
75320;SDS011;68337;52.196;5.660;2023-03-14T05:21:02;13.82;;;4.10;;
75320;SDS011;68337;52.196;5.660;2023-03-14T05:23:28;7.85;;;3.10;;
75320;SDS011;68337;52.196;5.660;2023-03-14T05:25:55;9.95;;;3.38;;
75320;SDS011;68337;52.196;5.660;2023-03-14T05:28:20;8.45;;;3.70;;
75320;SDS011;68337;52.196;5.660;2023-03-14T05:30:46;11.75;;;3.60;;
75320;SDS011;68337;52.196;5.660;2023-03-14T05:33:12;15.35;;;3.97;;
75320;SDS011;68337;52.196;5.660;2023-03-14T05:35:38;11.80;;;4.22;;
75320;SDS011;68337;52.196;5.660;2023-03-14T05:38:03;14.70;;;4.38;;
75320;SDS011;68337;52.196;5.660;2023-03-14T05:40:29;12.85;;;4.65;;
75320;SDS011;68337;52.196;5.660;2023-03-14T05:42:55;8.82;;;4.03;;
75320;SDS011;68337;52.196;5.660;2023-03-14T05:45:20;16.50;;;4.60;;
75320;SDS011;68337;52.196;5.660;2023-03-14T05:47:46;16.35;;;4.90;;
75320;SDS011;68337;52.196;5.660;2023-03-14T05:50:12;13.65;;;4.80;;
75320;SDS011;68337;52.196;5.660;2023-03-14T05:52:38;13.95;;;5.38;;
75320;SDS011;68337;52.196;5.660;2023-03-14T05:55:03;13.57;;;4.90;;
75320;SDS011;68337;52.196;5.660;2023-03-14T05:57:29;11.80;;;5.22;;
75320;SDS011;68337;52.196;5.660;2023-03-14T05:59:55;13.55;;;5.28;;
75320;SDS011;68337;52.196;5.660;2023-03-14T06:02:21;13.25;;;5.40;;
75320;SDS011;68337;52.196;5.660;2023-03-14T06:04:47;13.25;;;4.93;;
75320;SDS011;68337;52.196;5.660;2023-03-14T06:07:13;17.35;;;6.00;;
75320;SDS011;68337;52.196;5.660;2023-03-14T06:09:38;11.23;;;6.18;;
75320;SDS011;68337;52.196;5.660;2023-03-14T06:12:06;12.23;;;5.43;;
75320;SDS011;68337;52.196;5.660;2023-03-14T06:14:32;9.30;;;5.05;;
75320;SDS011;68337;52.196;5.660;2023-03-14T06:16:57;18.55;;;6.05;;
75320;SDS011;68337;52.196;5.660;2023-03-14T06:19:24;10.90;;;5.60;;
75320;SDS011;68337;52.196;5.660;2023-03-14T06:21:50;10.52;;;5.60;;
75320;SDS011;68337;52.196;5.660;2023-03-14T06:24:16;10.48;;;6.10;;
75320;SDS011;68337;52.196;5.660;2023-03-14T06:26:42;13.23;;;5.97;;
75320;SDS011;68337;52.196;5.660;2023-03-14T06:29:08;16.05;;;6.45;;
75320;SDS011;68337;52.196;5.660;2023-03-14T06:31:34;10.50;;;5.90;;
75320;SDS011;68337;52.196;5.660;2023-03-14T06:34:00;12.85;;;6.38;;
75320;SDS011;68337;52.196;5.660;2023-03-14T06:36:26;13.18;;;6.38;;
75320;SDS011;68337;52.196;5.660;2023-03-14T06:38:52;10.90;;;5.57;;
75320;SDS011;68337;52.196;5.660;2023-03-14T06:41:17;10.18;;;5.97;;
75320;SDS011;68337;52.196;5.660;2023-03-14T06:43:43;15.45;;;6.65;;
75320;SDS011;68337;52.196;5.660;2023-03-14T06:46:09;13.90;;;6.22;;
75320;SDS011;68337;52.196;5.660;2023-03-14T06:48:35;13.05;;;6.22;;
75320;SDS011;68337;52.196;5.660;2023-03-14T06:51:00;13.23;;;6.53;;
75320;SDS011;68337;52.196;5.660;2023-03-14T06:53:26;14.77;;;7.35;;
75320;SDS011;68337;52.196;5.660;2023-03-14T06:55:52;12.07;;;7.13;;
75320;SDS011;68337;52.196;5.660;2023-03-14T06:58:18;12.45;;;7.05;;
75320;SDS011;68337;52.196;5.660;2023-03-14T07:00:44;4.85;;;4.03;;
75320;SDS011;68337;52.196;5.660;2023-03-14T07:03:10;2.85;;;2.10;;
75320;SDS011;68337;52.196;5.660;2023-03-14T07:05:37;3.40;;;1.80;;
75320;SDS011;68337;52.196;5.660;2023-03-14T07:08:05;2.20;;;1.50;;
75320;SDS011;68337;52.196;5.660;2023-03-14T07:10:31;2.83;;;1.35;;
75320;SDS011;68337;52.196;5.660;2023-03-14T07:12:57;2.15;;;1.52;;
75320;SDS011;68337;52.196;5.660;2023-03-14T07:15:23;2.40;;;1.33;;
75320;SDS011;68337;52.196;5.660;2023-03-14T07:17:49;2.92;;;1.27;;
75320;SDS011;68337;52.196;5.660;2023-03-14T07:20:15;2.92;;;1.42;;
75320;SDS011;68337;52.196;5.660;2023-03-14T07:22:41;2.88;;;1.15;;
75320;SDS011;68337;52.196;5.660;2023-03-14T07:25:06;4.47;;;0.98;;
75320;SDS011;68337;52.196;5.660;2023-03-14T07:27:34;3.42;;;1.20;;
75320;SDS011;68337;52.196;5.660;2023-03-14T07:30:00;4.75;;;1.00;;
75320;SDS011;68337;52.196;5.660;2023-03-14T07:32:25;2.45;;;1.00;;
75320;SDS011;68337;52.196;5.660;2023-03-14T07:34:51;3.22;;;0.98;;
75320;SDS011;68337;52.196;5.660;2023-03-14T07:37:17;2.17;;;1.00;;
75320;SDS011;68337;52.196;5.660;2023-03-14T07:39:42;1.10;;;1.10;;
75320;SDS011;68337;52.196;5.660;2023-03-14T07:42:08;2.92;;;0.90;;
75320;SDS011;68337;52.196;5.660;2023-03-14T07:44:34;2.33;;;1.13;;
75320;SDS011;68337;52.196;5.660;2023-03-14T07:47:00;1.00;;;0.90;;
75320;SDS011;68337;52.196;5.660;2023-03-14T07:49:25;1.20;;;0.85;;
75320;SDS011;68337;52.196;5.660;2023-03-14T07:51:51;2.15;;;1.38;;
75320;SDS011;68337;52.196;5.660;2023-03-14T07:54:17;2.97;;;1.25;;
75320;SDS011;68337;52.196;5.660;2023-03-14T07:56:42;2.40;;;1.10;;
75320;SDS011;68337;52.196;5.660;2023-03-14T07:59:08;4.82;;;0.98;;
75320;SDS011;68337;52.196;5.660;2023-03-14T08:01:34;2.72;;;1.05;;
75320;SDS011;68337;52.196;5.660;2023-03-14T08:03:59;4.75;;;2.38;;
75320;SDS011;68337;52.196;5.660;2023-03-14T08:06:25;6.53;;;1.20;;
75320;SDS011;68337;52.196;5.660;2023-03-14T08:08:51;6.95;;;1.20;;
75320;SDS011;68337;52.196;5.660;2023-03-14T08:11:16;7.43;;;1.60;;
75320;SDS011;68337;52.196;5.660;2023-03-14T08:13:42;6.45;;;1.60;;
75320;SDS011;68337;52.196;5.660;2023-03-14T08:16:14;6.70;;;1.30;;
75320;SDS011;68337;52.196;5.660;2023-03-14T08:18:42;10.32;;;1.80;;
75320;SDS011;68337;52.196;5.660;2023-03-14T08:21:08;17.20;;;2.38;;
75320;SDS011;68337;52.196;5.660;2023-03-14T08:23:34;10.05;;;1.95;;
75320;SDS011;68337;52.196;5.660;2023-03-14T08:25:59;8.32;;;1.40;;
75320;SDS011;68337;52.196;5.660;2023-03-14T08:28:25;12.60;;;1.52;;
75320;SDS011;68337;52.196;5.660;2023-03-14T08:30:55;7.88;;;1.80;;
75320;SDS011;68337;52.196;5.660;2023-03-14T08:33:22;5.75;;;1.45;;
75320;SDS011;68337;52.196;5.660;2023-03-14T08:35:51;7.07;;;1.30;;
75320;SDS011;68337;52.196;5.660;2023-03-14T08:38:17;5.47;;;1.45;;
75320;SDS011;68337;52.196;5.660;2023-03-14T08:40:43;5.80;;;1.05;;
75320;SDS011;68337;52.196;5.660;2023-03-14T08:43:09;7.40;;;1.80;;
75320;SDS011;68337;52.196;5.660;2023-03-14T08:45:34;6.20;;;1.05;;
75320;SDS011;68337;52.196;5.660;2023-03-14T08:48:00;4.68;;;1.15;;
75320;SDS011;68337;52.196;5.660;2023-03-14T08:50:26;11.48;;;1.67;;
75320;SDS011;68337;52.196;5.660;2023-03-14T08:52:55;4.22;;;0.90;;
75320;SDS011;68337;52.196;5.660;2023-03-14T08:55:25;8.48;;;0.80;;
75320;SDS011;68337;52.196;5.660;2023-03-14T08:57:52;3.17;;;1.05;;
75320;SDS011;68337;52.196;5.660;2023-03-14T09:00:18;2.72;;;1.30;;
75320;SDS011;68337;52.196;5.660;2023-03-14T09:02:44;5.47;;;0.95;;
75320;SDS011;68337;52.196;5.660;2023-03-14T09:05:11;2.35;;;0.88;;
75320;SDS011;68337;52.196;5.660;2023-03-14T09:07:37;3.72;;;0.70;;
75320;SDS011;68337;52.196;5.660;2023-03-14T09:10:04;5.13;;;0.82;;
75320;SDS011;68337;52.196;5.660;2023-03-14T09:12:30;1.63;;;0.80;;
75320;SDS011;68337;52.196;5.660;2023-03-14T09:14:56;6.15;;;1.45;;
75320;SDS011;68337;52.196;5.660;2023-03-14T09:17:22;7.45;;;1.20;;
75320;SDS011;68337;52.196;5.660;2023-03-14T09:19:47;5.10;;;1.00;;
75320;SDS011;68337;52.196;5.660;2023-03-14T09:22:13;4.22;;;1.38;;
75320;SDS011;68337;52.196;5.660;2023-03-14T09:24:39;10.25;;;1.55;;
75320;SDS011;68337;52.196;5.660;2023-03-14T09:27:06;8.20;;;1.40;;
75320;SDS011;68337;52.196;5.660;2023-03-14T09:29:32;6.05;;;1.33;;
75320;SDS011;68337;52.196;5.660;2023-03-14T09:31:58;10.18;;;1.75;;
75320;SDS011;68337;52.196;5.660;2023-03-14T09:34:24;9.07;;;1.63;;
75320;SDS011;68337;52.196;5.660;2023-03-14T09:36:50;13.73;;;2.25;;
75320;SDS011;68337;52.196;5.660;2023-03-14T09:39:16;8.45;;;2.03;;
75320;SDS011;68337;52.196;5.660;2023-03-14T09:41:51;6.00;;;2.05;;
75320;SDS011;68337;52.196;5.660;2023-03-14T09:46:46;10.65;;;2.00;;
75320;SDS011;68337;52.196;5.660;2023-03-14T09:49:23;13.68;;;2.50;;
75320;SDS011;68337;52.196;5.660;2023-03-14T09:51:54;16.00;;;2.58;;
75320;SDS011;68337;52.196;5.660;2023-03-14T09:55:04;22.77;;;3.13;;
75320;SDS011;68337;52.196;5.660;2023-03-14T09:57:14;13.38;;;2.30;;
75320;SDS011;68337;52.196;5.660;2023-03-14T09:59:43;14.95;;;3.58;;
75320;SDS011;68337;52.196;5.660;2023-03-14T10:02:18;16.05;;;3.17;;
75320;SDS011;68337;52.196;5.660;2023-03-14T10:04:47;14.95;;;2.78;;
75320;SDS011;68337;52.196;5.660;2023-03-14T10:07:19;16.48;;;2.90;;
75320;SDS011;68337;52.196;5.660;2023-03-14T10:09:51;24.42;;;3.13;;
75320;SDS011;68337;52.196;5.660;2023-03-14T10:12:17;17.67;;;3.20;;
75320;SDS011;68337;52.196;5.660;2023-03-14T10:14:45;20.05;;;3.17;;
75320;SDS011;68337;52.196;5.660;2023-03-14T10:17:13;17.27;;;3.08;;
75320;SDS011;68337;52.196;5.660;2023-03-14T10:19:51;21.30;;;3.80;;
75320;SDS011;68337;52.196;5.660;2023-03-14T10:22:17;16.98;;;3.25;;
75320;SDS011;68337;52.196;5.660;2023-03-14T10:24:45;19.17;;;3.80;;
75320;SDS011;68337;52.196;5.660;2023-03-14T10:27:20;18.02;;;3.25;;
75320;SDS011;68337;52.196;5.660;2023-03-14T10:29:55;14.60;;;2.67;;
75320;SDS011;68337;52.196;5.660;2023-03-14T10:32:27;19.75;;;2.53;;
75320;SDS011;68337;52.196;5.660;2023-03-14T10:37:51;23.08;;;3.75;;
75320;SDS011;68337;52.196;5.660;2023-03-14T10:40:30;27.30;;;3.70;;
75320;SDS011;68337;52.196;5.660;2023-03-14T10:43:02;22.50;;;3.17;;
75320;SDS011;68337;52.196;5.660;2023-03-14T10:45:32;21.95;;;4.13;;
75320;SDS011;68337;52.196;5.660;2023-03-14T10:48:06;18.35;;;3.67;;
75320;SDS011;68337;52.196;5.660;2023-03-14T10:51:27;12.77;;;2.80;;
75320;SDS011;68337;52.196;5.660;2023-03-14T10:56:21;25.73;;;3.90;;
75320;SDS011;68337;52.196;5.660;2023-03-14T10:58:52;22.10;;;4.63;;
75320;SDS011;68337;52.196;5.660;2023-03-14T11:01:37;18.58;;;3.50;;
75320;SDS011;68337;52.196;5.660;2023-03-14T11:20:38;17.67;;;3.08;;
75320;SDS011;68337;52.196;5.660;2023-03-14T11:23:32;15.25;;;3.15;;
75320;SDS011;68337;52.196;5.660;2023-03-14T11:26:21;13.05;;;3.80;;
75320;SDS011;68337;52.196;5.660;2023-03-14T11:29:19;11.82;;;2.97;;
75320;SDS011;68337;52.196;5.660;2023-03-14T11:32:01;16.35;;;2.78;;
75320;SDS011;68337;52.196;5.660;2023-03-14T11:34:31;12.60;;;3.00;;
75320;SDS011;68337;52.196;5.660;2023-03-14T11:37:14;16.58;;;2.70;;
75320;SDS011;68337;52.196;5.660;2023-03-14T11:39:44;12.25;;;2.75;;
75320;SDS011;68337;52.196;5.660;2023-03-14T11:42:17;12.70;;;2.53;;
75320;SDS011;68337;52.196;5.660;2023-03-14T11:44:46;13.10;;;3.28;;
75320;SDS011;68337;52.196;5.660;2023-03-14T11:49:53;14.43;;;2.70;;
75320;SDS011;68337;52.196;5.660;2023-03-14T11:55:27;14.07;;;2.80;;
75320;SDS011;68337;52.196;5.660;2023-03-14T11:57:58;15.32;;;2.40;;
75320;SDS011;68337;52.196;5.660;2023-03-14T12:00:28;16.83;;;2.58;;
75320;SDS011;68337;52.196;5.660;2023-03-14T12:09:01;9.90;;;2.00;;
75320;SDS011;68337;52.196;5.660;2023-03-14T12:11:32;14.88;;;2.10;;
75320;SDS011;68337;52.196;5.660;2023-03-14T12:14:28;9.50;;;2.28;;
75320;SDS011;68337;52.196;5.660;2023-03-14T12:17:18;6.95;;;2.08;;
75320;SDS011;68337;52.196;5.660;2023-03-14T12:19:46;12.02;;;2.38;;
75320;SDS011;68337;52.196;5.660;2023-03-14T12:22:27;16.17;;;3.33;;
75320;SDS011;68337;52.196;5.660;2023-03-14T12:25:15;8.60;;;1.95;;
75320;SDS011;68337;52.196;5.660;2023-03-14T12:27:45;13.95;;;2.45;;
75320;SDS011;68337;52.196;5.660;2023-03-14T12:30:23;14.57;;;2.80;;
75320;SDS011;68337;52.196;5.660;2023-03-14T12:35:38;15.68;;;2.17;;
75320;SDS011;68337;52.196;5.660;2023-03-14T12:43:39;11.73;;;2.38;;
75320;SDS011;68337;52.196;5.660;2023-03-14T12:48:46;11.70;;;2.70;;
75320;SDS011;68337;52.196;5.660;2023-03-14T12:51:14;7.85;;;2.15;;
75320;SDS011;68337;52.196;5.660;2023-03-14T13:02:01;9.48;;;1.90;;
75320;SDS011;68337;52.196;5.660;2023-03-14T13:04:36;11.70;;;1.88;;
75320;SDS011;68337;52.196;5.660;2023-03-14T13:15:32;8.95;;;1.77;;
75320;SDS011;68337;52.196;5.660;2023-03-14T13:18:09;4.60;;;1.45;;
75320;SDS011;68337;52.196;5.660;2023-03-14T13:20:36;10.45;;;2.28;;
75320;SDS011;68337;52.196;5.660;2023-03-14T13:23:05;7.90;;;1.77;;
75320;SDS011;68337;52.196;5.660;2023-03-14T13:25:43;6.90;;;1.80;;
75320;SDS011;68337;52.196;5.660;2023-03-14T13:28:11;8.00;;;1.75;;
75320;SDS011;68337;52.196;5.660;2023-03-14T13:30:40;7.78;;;1.23;;
75320;SDS011;68337;52.196;5.660;2023-03-14T13:33:16;9.57;;;1.77;;
75320;SDS011;68337;52.196;5.660;2023-03-14T13:35:47;6.65;;;1.38;;
75320;SDS011;68337;52.196;5.660;2023-03-14T13:38:20;6.82;;;1.55;;
75320;SDS011;68337;52.196;5.660;2023-03-14T13:40:48;6.05;;;1.65;;
75320;SDS011;68337;52.196;5.660;2023-03-14T13:45:49;6.32;;;1.85;;
75320;SDS011;68337;52.196;5.660;2023-03-14T13:48:16;10.48;;;1.92;;
75320;SDS011;68337;52.196;5.660;2023-03-14T13:50:49;4.93;;;1.70;;
75320;SDS011;68337;52.196;5.660;2023-03-14T13:53:21;8.30;;;1.38;;
75320;SDS011;68337;52.196;5.660;2023-03-14T13:55:48;9.30;;;2.22;;
75320;SDS011;68337;52.196;5.660;2023-03-14T13:58:27;6.75;;;1.80;;
75320;SDS011;68337;52.196;5.660;2023-03-14T14:01:16;5.57;;;1.67;;
75320;SDS011;68337;52.196;5.660;2023-03-14T14:04:07;8.73;;;1.58;;
75320;SDS011;68337;52.196;5.660;2023-03-14T14:06:39;7.90;;;1.60;;
75320;SDS011;68337;52.196;5.660;2023-03-14T14:09:15;6.35;;;1.73;;
75320;SDS011;68337;52.196;5.660;2023-03-14T14:11:46;7.18;;;1.48;;
75320;SDS011;68337;52.196;5.660;2023-03-14T14:14:19;7.40;;;1.52;;
75320;SDS011;68337;52.196;5.660;2023-03-14T14:16:51;6.68;;;1.50;;
75320;SDS011;68337;52.196;5.660;2023-03-14T14:19:17;6.65;;;1.75;;
75320;SDS011;68337;52.196;5.660;2023-03-14T14:21:45;6.05;;;1.77;;
75320;SDS011;68337;52.196;5.660;2023-03-14T14:24:14;6.07;;;1.70;;
75320;SDS011;68337;52.196;5.660;2023-03-14T14:26:46;4.55;;;1.50;;
75320;SDS011;68337;52.196;5.660;2023-03-14T14:32:09;6.45;;;1.40;;
75320;SDS011;68337;52.196;5.660;2023-03-14T14:34:42;12.68;;;1.60;;
75320;SDS011;68337;52.196;5.660;2023-03-14T14:37:33;5.72;;;1.50;;
75320;SDS011;68337;52.196;5.660;2023-03-14T14:40:09;6.35;;;1.33;;
75320;SDS011;68337;52.196;5.660;2023-03-14T14:42:46;5.38;;;1.50;;
75320;SDS011;68337;52.196;5.660;2023-03-14T14:45:13;4.25;;;1.50;;
75320;SDS011;68337;52.196;5.660;2023-03-14T14:47:48;6.90;;;1.77;;
75320;SDS011;68337;52.196;5.660;2023-03-14T14:50:48;7.00;;;1.50;;
75320;SDS011;68337;52.196;5.660;2023-03-14T14:53:30;9.40;;;1.80;;
75320;SDS011;68337;52.196;5.660;2023-03-14T14:55:58;6.65;;;1.15;;
75320;SDS011;68337;52.196;5.660;2023-03-14T14:58:29;6.97;;;1.60;;
75320;SDS011;68337;52.196;5.660;2023-03-14T15:04:02;6.63;;;2.15;;
75320;SDS011;68337;52.196;5.660;2023-03-14T15:06:35;12.73;;;2.42;;
75320;SDS011;68337;52.196;5.660;2023-03-14T15:09:01;7.05;;;1.60;;
75320;SDS011;68337;52.196;5.660;2023-03-14T15:11:26;12.63;;;2.15;;
75320;SDS011;68337;52.196;5.660;2023-03-14T15:13:53;9.77;;;1.80;;
75320;SDS011;68337;52.196;5.660;2023-03-14T15:16:20;10.98;;;2.33;;
75320;SDS011;68337;52.196;5.660;2023-03-14T15:18:50;5.20;;;1.70;;
75320;SDS011;68337;52.196;5.660;2023-03-14T15:21:19;11.02;;;1.58;;
75320;SDS011;68337;52.196;5.660;2023-03-14T15:23:44;4.07;;;1.70;;
75320;SDS011;68337;52.196;5.660;2023-03-14T15:26:14;8.30;;;1.60;;
75320;SDS011;68337;52.196;5.660;2023-03-14T15:28:47;7.43;;;1.55;;
75320;SDS011;68337;52.196;5.660;2023-03-14T15:31:13;5.82;;;1.60;;
75320;SDS011;68337;52.196;5.660;2023-03-14T15:33:40;9.18;;;1.50;;
75320;SDS011;68337;52.196;5.660;2023-03-14T15:36:06;9.02;;;2.10;;
75320;SDS011;68337;52.196;5.660;2023-03-14T15:38:47;4.20;;;1.50;;
75320;SDS011;68337;52.196;5.660;2023-03-14T15:41:14;5.10;;;1.77;;
75320;SDS011;68337;52.196;5.660;2023-03-14T15:43:40;10.02;;;1.35;;
75320;SDS011;68337;52.196;5.660;2023-03-14T15:46:10;6.78;;;2.03;;
75320;SDS011;68337;52.196;5.660;2023-03-14T15:48:36;4.60;;;1.80;;
75320;SDS011;68337;52.196;5.660;2023-03-14T15:51:02;11.65;;;2.20;;
75320;SDS011;68337;52.196;5.660;2023-03-14T15:53:28;13.48;;;2.10;;
75320;SDS011;68337;52.196;5.660;2023-03-14T15:55:54;5.90;;;1.90;;
75320;SDS011;68337;52.196;5.660;2023-03-14T15:58:20;8.82;;;1.73;;
75320;SDS011;68337;52.196;5.660;2023-03-14T16:00:46;9.05;;;2.30;;
75320;SDS011;68337;52.196;5.660;2023-03-14T16:03:12;4.93;;;1.67;;
75320;SDS011;68337;52.196;5.660;2023-03-14T16:05:38;7.15;;;1.65;;
75320;SDS011;68337;52.196;5.660;2023-03-14T16:08:05;9.77;;;1.55;;
75320;SDS011;68337;52.196;5.660;2023-03-14T16:10:31;11.55;;;1.80;;
75320;SDS011;68337;52.196;5.660;2023-03-14T16:12:57;7.80;;;1.63;;
75320;SDS011;68337;52.196;5.660;2023-03-14T16:15:23;7.97;;;1.63;;
75320;SDS011;68337;52.196;5.660;2023-03-14T16:17:54;10.23;;;1.98;;
75320;SDS011;68337;52.196;5.660;2023-03-14T16:20:20;9.77;;;1.95;;